createdAt,value
2023-01-17T00:00:32.846Z,94866.56
2023-01-17T00:02:43.390Z,94872.31
2023-01-17T00:05:03.714Z,94874.13
2023-01-17T00:07:26.435Z,94869.59
2023-01-17T00:09:46.700Z,94869.63
2023-01-17T00:11:54.733Z,94875.22
2023-01-17T00:14:02.650Z,94877.97
2023-01-17T00:16:13.207Z,94884.28
2023-01-17T00:18:23.616Z,94881.63
2023-01-17T00:20:46.631Z,94871.72
2023-01-17T00:23:07.094Z,94882.78
2023-01-17T00:25:29.017Z,94883.19
2023-01-17T00:27:34.574Z,94881.66
2023-01-17T00:29:39.574Z,94880.22
2023-01-17T00:31:44.565Z,94873.91
2023-01-17T00:33:52.196Z,94879.53
2023-01-17T00:35:58.531Z,94879.94
2023-01-17T00:38:05.719Z,94866.63
2023-01-17T00:40:11.679Z,94874.47
2023-01-17T00:42:16.822Z,94878.88
2023-01-17T00:44:37.051Z,94869.09
2023-01-17T00:46:57.305Z,94875.81
2023-01-17T00:49:20.924Z,94878.63
2023-01-17T00:51:42.588Z,94881.78
2023-01-17T00:54:03.510Z,94881.28
2023-01-17T00:56:23.820Z,94887.81
2023-01-17T00:58:44.069Z,94897.13
2023-01-17T01:01:04.376Z,94893.94
2023-01-17T01:03:25.410Z,94899.41
2023-01-17T01:05:48.515Z,94900.56
2023-01-17T01:08:09.009Z,94903.56
2023-01-17T01:10:30.994Z,94906.78
2023-01-17T01:12:51.435Z,94908.09
2023-01-17T01:15:11.738Z,94912.94
2023-01-17T01:17:32.113Z,94915.22
2023-01-17T01:19:52.327Z,94920.00
2023-01-17T01:22:15.894Z,94922.50
2023-01-17T01:24:36.152Z,94923.78
2023-01-17T01:26:56.345Z,94927.97
2023-01-17T01:29:18.031Z,94925.56
2023-01-17T01:31:38.374Z,94936.25
2023-01-17T01:33:46.440Z,94940.84
2023-01-17T01:35:56.453Z,94943.59
2023-01-17T01:38:07.851Z,94931.53
2023-01-17T01:40:17.263Z,94935.75
2023-01-17T01:42:25.427Z,94928.69
2023-01-17T01:44:47.859Z,94924.28
2023-01-17T01:46:55.705Z,94925.78
2023-01-17T01:49:06.100Z,94935.56
2023-01-17T01:51:18.998Z,94945.09
2023-01-17T01:53:33.263Z,94941.50
2023-01-17T01:55:45.695Z,94938.34
2023-01-17T01:57:56.847Z,94937.34
2023-01-17T02:00:11.767Z,94942.72
2023-01-17T02:02:22.635Z,94939.69
2023-01-17T02:04:31.675Z,94946.00
2023-01-17T02:06:42.688Z,94949.19
2023-01-17T02:08:53.952Z,94951.59
2023-01-17T02:11:01.707Z,94950.88
2023-01-17T02:13:10.761Z,94952.31
2023-01-17T02:15:18.733Z,94955.19
2023-01-17T02:17:38.919Z,94943.06
2023-01-17T02:20:11.430Z,94949.03
2023-01-17T02:22:38.744Z,94940.94
2023-01-17T02:25:14.676Z,94937.22
2023-01-17T02:27:29.395Z,94943.66
2023-01-17T02:30:22.885Z,94950.81
2023-01-17T02:32:41.222Z,94951.44
2023-01-17T02:34:54.715Z,94958.31
2023-01-17T02:37:09.259Z,94969.16
2023-01-17T02:39:24.775Z,94958.63
2023-01-17T02:41:37.717Z,94958.72
2023-01-17T02:43:46.221Z,94959.78
2023-01-17T02:45:55.527Z,94957.75
2023-01-17T02:48:08.174Z,94948.22
2023-01-17T02:50:21.699Z,94951.78
2023-01-17T02:52:42.526Z,94954.63
2023-01-17T02:55:04.041Z,94955.47
2023-01-17T02:57:30.522Z,94953.78
2023-01-17T02:59:48.523Z,94948.19
2023-01-17T03:02:11.771Z,94939.13
2023-01-17T03:04:27.347Z,94936.94
2023-01-17T03:06:39.726Z,94940.69
2023-01-17T03:08:50.573Z,94928.97
2023-01-17T03:10:58.357Z,94926.72
2023-01-17T03:13:07.244Z,94928.16
2023-01-17T03:15:17.544Z,94934.47
2023-01-17T03:17:26.895Z,94940.88
2023-01-17T03:19:37.915Z,94949.25
2023-01-17T03:21:46.145Z,94946.56
2023-01-17T03:23:54.662Z,94945.25
2023-01-17T03:26:02.517Z,94956.25
2023-01-17T03:28:10.453Z,94956.50
2023-01-17T03:30:20.574Z,94953.69
2023-01-17T03:32:28.338Z,94962.16
2023-01-17T03:34:38.732Z,94960.00
2023-01-17T03:36:46.540Z,94952.94
2023-01-17T03:38:54.446Z,94953.03
2023-01-17T03:41:02.621Z,94949.50
2023-01-17T03:43:10.660Z,94951.31
2023-01-17T03:45:19.928Z,94942.25
2023-01-17T03:47:27.748Z,94950.97
2023-01-17T03:49:38.259Z,94945.94
2023-01-17T03:51:57.815Z,94942.59
2023-01-17T03:54:06.295Z,94948.91
2023-01-17T03:56:14.444Z,94949.91
2023-01-17T03:58:22.765Z,94950.84
2023-01-17T04:00:31.354Z,94953.75
2023-01-17T04:02:39.998Z,94951.13
2023-01-17T04:04:51.212Z,94957.53
2023-01-17T04:07:01.840Z,94958.34
2023-01-17T04:09:10.384Z,94955.41
2023-01-17T04:11:18.930Z,94950.94
2023-01-17T04:13:30.115Z,94952.06
2023-01-17T04:15:42.086Z,94948.53
2023-01-17T04:17:53.608Z,94958.81
2023-01-17T04:20:04.343Z,94955.94
2023-01-17T04:22:16.036Z,94963.56
2023-01-17T04:24:24.495Z,94950.72
2023-01-17T04:26:33.181Z,94947.19
2023-01-17T04:28:41.167Z,94939.28
2023-01-17T04:30:49.009Z,94934.84
2023-01-17T04:32:57.460Z,94930.78
2023-01-17T04:35:09.574Z,94931.38
2023-01-17T04:37:17.465Z,94934.13
2023-01-17T04:39:25.371Z,94937.91
2023-01-17T04:41:33.120Z,94939.06
2023-01-17T04:43:41.007Z,94939.13
2023-01-17T04:45:49.005Z,94935.31
2023-01-17T04:47:57.236Z,94936.00
2023-01-17T04:50:08.352Z,94931.53
2023-01-17T04:52:18.772Z,94925.75
2023-01-17T04:54:29.243Z,94930.34
2023-01-17T04:56:37.253Z,94932.97
2023-01-17T04:58:45.232Z,94934.44
2023-01-17T05:00:53.571Z,94925.03
2023-01-17T05:03:01.386Z,94926.22
2023-01-17T05:05:13.503Z,94926.97
2023-01-17T05:07:21.552Z,94926.97
2023-01-17T05:09:29.411Z,94923.69
2023-01-17T05:11:37.872Z,94927.41
2023-01-17T05:13:45.909Z,94928.03
2023-01-17T05:15:54.063Z,94926.13
2023-01-17T05:18:02.016Z,94930.84
2023-01-17T05:20:14.233Z,94934.53
2023-01-17T05:22:22.309Z,94937.44
2023-01-17T05:24:30.155Z,94924.84
2023-01-17T05:26:37.996Z,94925.38
2023-01-17T05:28:45.747Z,94925.97
2023-01-17T05:30:53.592Z,94922.31
2023-01-17T05:33:02.382Z,94925.03
2023-01-17T05:35:13.125Z,94933.38
2023-01-17T05:37:20.990Z,94935.66
2023-01-17T05:39:31.122Z,94936.41
2023-01-17T05:41:39.140Z,94935.00
2023-01-17T05:43:46.984Z,94945.47
2023-01-17T05:45:55.227Z,94946.94
2023-01-17T05:48:04.445Z,94941.00
2023-01-17T05:50:16.281Z,94938.78
2023-01-17T05:52:24.536Z,94948.84
2023-01-17T05:54:32.451Z,94936.16
2023-01-17T05:56:40.354Z,94932.94
2023-01-17T05:58:48.312Z,94937.34
2023-01-17T06:00:58.107Z,94939.63
2023-01-17T06:03:06.121Z,94928.16
2023-01-17T06:05:17.931Z,94932.50
2023-01-17T06:07:25.919Z,94922.38
2023-01-17T06:09:33.663Z,94927.31
2023-01-17T06:11:41.470Z,94924.91
2023-01-17T06:13:51.326Z,94920.06
2023-01-17T06:16:02.969Z,94928.34
2023-01-17T06:18:12.280Z,94918.78
2023-01-17T06:20:22.980Z,94912.84
2023-01-17T06:22:31.131Z,94901.94
2023-01-17T06:24:39.158Z,94900.72
2023-01-17T06:26:47.811Z,94905.13
2023-01-17T06:28:55.921Z,94899.38
2023-01-17T06:31:09.613Z,94895.44
2023-01-17T06:33:17.800Z,94901.69
2023-01-17T06:35:28.509Z,94894.09
2023-01-17T06:37:36.714Z,94894.38
2023-01-17T06:39:44.919Z,94900.66
2023-01-17T06:41:53.057Z,94903.28
2023-01-17T06:44:01.011Z,94907.19
2023-01-17T06:46:09.234Z,94906.06
2023-01-17T06:48:17.243Z,94910.19
2023-01-17T06:50:28.716Z,94907.31
2023-01-17T06:52:39.654Z,94903.44
2023-01-17T06:54:47.527Z,94902.09
2023-01-17T06:56:55.553Z,94903.53
2023-01-17T06:59:04.905Z,94902.16
2023-01-17T07:01:15.200Z,94903.09
2023-01-17T07:03:24.574Z,94906.72
2023-01-17T07:05:35.100Z,94909.47
2023-01-17T07:07:42.880Z,94921.63
2023-01-17T07:09:50.609Z,94917.72
2023-01-17T07:12:02.043Z,94907.06
2023-01-17T07:14:15.419Z,94907.66
2023-01-17T07:16:23.312Z,94906.38
2023-01-17T07:18:33.824Z,94907.56
2023-01-17T07:20:46.049Z,94903.03
2023-01-17T07:22:53.871Z,94899.38
2023-01-17T07:25:01.657Z,94898.41
2023-01-17T07:27:10.190Z,94893.00
2023-01-17T07:29:18.000Z,94890.63
2023-01-17T07:31:26.298Z,94890.06
2023-01-17T07:33:34.282Z,94888.78
2023-01-17T07:35:45.054Z,94879.75
2023-01-17T07:37:53.809Z,94876.38
2023-01-17T07:40:02.710Z,94874.84
2023-01-17T07:42:10.502Z,94862.34
2023-01-17T07:44:18.507Z,94865.53
2023-01-17T07:46:27.962Z,94866.00
2023-01-17T07:48:36.070Z,94862.78
2023-01-17T07:50:47.258Z,94859.66
2023-01-17T07:52:56.730Z,94862.22
2023-01-17T07:55:05.364Z,94857.91
2023-01-17T07:57:14.628Z,94853.84
2023-01-17T07:59:22.926Z,94853.25
2023-01-17T08:01:31.074Z,94850.16
2023-01-17T08:03:40.365Z,94858.41
2023-01-17T08:05:58.000Z,94862.22
2023-01-17T08:08:05.946Z,94863.91
2023-01-17T08:10:18.177Z,94868.97
2023-01-17T08:12:26.134Z,94867.16
2023-01-17T08:14:33.916Z,94859.66
2023-01-17T08:16:42.176Z,94860.75
2023-01-17T08:18:49.957Z,94869.22
2023-01-17T08:21:01.011Z,94871.28
2023-01-17T08:23:09.063Z,94874.25
2023-01-17T08:25:19.319Z,94869.72
2023-01-17T08:27:27.367Z,94868.66
2023-01-17T08:29:35.344Z,94873.53
2023-01-17T08:31:43.399Z,94884.22
2023-01-17T08:33:51.368Z,94879.94
2023-01-17T08:36:01.840Z,94881.47
2023-01-17T08:38:10.148Z,94883.16
2023-01-17T08:40:20.043Z,94880.22
2023-01-17T08:42:28.485Z,94880.69
2023-01-17T08:44:36.475Z,94875.19
2023-01-17T08:46:44.384Z,94877.25
2023-01-17T08:48:56.758Z,94875.94
2023-01-17T08:51:07.527Z,94875.13
2023-01-17T08:53:16.842Z,94867.25
2023-01-17T08:55:25.628Z,94875.59
2023-01-17T08:57:36.094Z,94876.06
2023-01-17T08:59:44.174Z,94867.13
2023-01-17T09:01:53.763Z,94866.63
2023-01-17T09:04:02.162Z,94865.44
2023-01-17T09:06:14.932Z,94865.78
2023-01-17T09:08:22.651Z,94869.28
2023-01-17T09:10:30.892Z,94866.28
2023-01-17T09:12:40.966Z,94859.88
2023-01-17T09:14:50.159Z,94854.13
2023-01-17T09:16:58.028Z,94853.91
2023-01-17T09:19:05.925Z,94851.09
2023-01-17T09:21:19.870Z,94850.53
2023-01-17T09:23:31.065Z,94860.00
2023-01-17T09:25:39.919Z,94847.56
2023-01-17T09:27:49.176Z,94851.16
2023-01-17T09:29:59.041Z,94851.75
2023-01-17T09:32:07.584Z,94878.22
2023-01-17T09:34:15.509Z,94892.38
2023-01-17T09:36:29.071Z,94883.69
2023-01-17T09:38:37.271Z,94883.78
2023-01-17T09:40:48.996Z,94875.84
2023-01-17T09:43:03.813Z,94874.78
2023-01-17T09:45:17.599Z,94869.25
2023-01-17T09:47:35.777Z,94893.22
2023-01-17T09:49:46.221Z,94903.00
2023-01-17T09:51:56.962Z,94888.91
2023-01-17T09:54:05.301Z,94888.16
2023-01-17T09:56:17.505Z,94874.81
2023-01-17T09:58:35.366Z,94889.34
2023-01-17T10:00:54.145Z,94875.41
2023-01-17T10:03:19.477Z,94864.75
2023-01-17T10:05:51.307Z,94845.16
2023-01-17T10:08:22.394Z,94836.16
2023-01-17T10:10:40.271Z,94829.09
2023-01-17T10:12:57.441Z,94835.53
2023-01-17T10:15:39.589Z,94836.41
2023-01-17T10:17:56.695Z,94847.94
2023-01-17T10:20:19.577Z,94842.28
2023-01-17T10:22:42.178Z,94832.13
2023-01-17T10:25:13.108Z,94829.25
2023-01-17T10:27:26.939Z,94837.56
2023-01-17T10:29:38.114Z,94854.81
2023-01-17T10:31:51.351Z,94873.53
2023-01-17T10:34:01.012Z,94893.94
2023-01-17T10:36:15.531Z,94898.72
2023-01-17T10:38:31.897Z,94900.06
2023-01-17T10:40:46.188Z,94895.69
2023-01-17T10:43:00.808Z,94886.91
2023-01-17T10:45:18.807Z,94874.97
2023-01-17T10:47:28.295Z,94882.88
2023-01-17T10:49:36.436Z,94868.47
2023-01-17T10:52:04.939Z,94874.19
2023-01-17T10:54:24.933Z,94878.88
2023-01-17T10:56:37.416Z,94874.75
2023-01-17T10:58:48.281Z,94870.47
2023-01-17T11:01:02.632Z,94852.56
2023-01-17T11:03:13.552Z,94844.09
2023-01-17T11:05:26.900Z,94828.94
2023-01-17T11:07:34.771Z,94826.50
2023-01-17T11:09:44.160Z,94836.31
2023-01-17T11:11:54.768Z,94843.75
2023-01-17T11:14:04.207Z,94846.97
2023-01-17T11:16:19.111Z,94835.78
2023-01-17T11:18:30.347Z,94826.28
2023-01-17T11:20:41.228Z,94813.84
2023-01-17T11:23:05.104Z,94814.63
2023-01-17T11:25:24.142Z,94803.44
2023-01-17T11:27:37.791Z,94788.22
2023-01-17T11:29:47.388Z,94771.56
2023-01-17T11:31:56.272Z,94780.84
2023-01-17T11:34:20.633Z,94772.97
2023-01-17T11:36:30.355Z,94772.19
2023-01-17T11:38:38.510Z,94778.31
2023-01-17T11:40:47.974Z,94785.38
2023-01-17T11:43:24.326Z,94775.09
2023-01-17T11:45:34.001Z,94766.53
2023-01-17T11:47:41.774Z,94773.88
2023-01-17T11:49:51.716Z,94763.13
2023-01-17T11:52:00.382Z,94753.41
2023-01-17T11:54:28.562Z,94745.78
2023-01-17T11:56:38.647Z,94739.88
2023-01-17T11:58:49.639Z,94733.13
2023-01-17T12:01:04.950Z,94721.78
2023-01-17T12:03:22.964Z,94720.84
2023-01-17T12:05:48.304Z,94715.06
2023-01-17T12:08:05.003Z,94720.19
2023-01-17T12:10:23.190Z,94724.06
2023-01-17T12:13:00.293Z,94717.66
2023-01-17T12:15:26.963Z,94711.31
2023-01-17T12:17:52.382Z,94710.72
2023-01-17T12:20:05.858Z,94705.47
2023-01-17T12:22:33.928Z,94697.78
2023-01-17T12:25:08.787Z,94700.50
2023-01-17T12:27:27.148Z,94691.50
2023-01-17T12:29:54.795Z,94682.13
2023-01-17T12:32:16.164Z,94674.66
2023-01-17T12:34:30.078Z,94684.75
2023-01-17T12:36:46.573Z,94677.28
2023-01-17T12:38:56.757Z,94683.22
2023-01-17T12:41:09.732Z,94671.22
2023-01-17T12:43:22.442Z,94662.06
2023-01-17T12:45:36.189Z,94671.09
2023-01-17T12:47:51.880Z,94667.31
2023-01-17T12:50:08.409Z,94655.84
2023-01-17T12:52:25.029Z,94638.31
2023-01-17T12:54:39.963Z,94645.38
2023-01-17T12:56:52.371Z,94651.31
2023-01-17T12:59:07.376Z,94647.69
2023-01-17T13:01:25.376Z,94644.25
2023-01-17T13:03:49.120Z,94633.59
2023-01-17T13:06:00.289Z,94631.50
2023-01-17T13:08:19.969Z,94631.22
2023-01-17T13:10:35.541Z,94630.50
2023-01-17T13:12:44.049Z,94629.16
2023-01-17T13:14:52.448Z,94637.47
2023-01-17T13:17:03.568Z,94637.72
2023-01-17T13:19:23.322Z,94620.84
2023-01-17T13:21:32.926Z,94633.69
2023-01-17T13:23:59.119Z,94628.19
2023-01-17T13:26:13.730Z,94624.03
2023-01-17T13:28:31.052Z,94622.75
2023-01-17T13:30:59.052Z,94620.00
2023-01-17T13:33:31.508Z,94624.59
2023-01-17T13:35:55.269Z,94615.16
2023-01-17T13:38:16.314Z,94617.38
2023-01-17T13:40:52.113Z,94616.84
2023-01-17T13:43:02.678Z,94617.69
2023-01-17T13:45:12.004Z,94606.44
2023-01-17T13:47:42.537Z,94601.34
2023-01-17T13:49:56.407Z,94596.94
2023-01-17T13:52:13.459Z,94598.72
2023-01-17T13:54:33.671Z,94597.06
2023-01-17T13:56:41.843Z,94607.41
2023-01-17T13:59:31.276Z,94610.63
2023-01-17T14:01:55.874Z,94604.38
2023-01-17T14:04:09.482Z,94606.03
2023-01-17T14:06:36.568Z,94612.53
2023-01-17T14:08:50.343Z,94609.22
2023-01-17T14:11:12.258Z,94615.03
2023-01-17T14:13:36.602Z,94613.47
2023-01-17T14:15:58.189Z,94612.53
2023-01-17T14:18:08.443Z,94606.31
2023-01-17T14:20:32.303Z,94614.75
2023-01-17T14:22:44.020Z,94609.75
2023-01-17T14:25:10.062Z,94606.44
2023-01-17T14:27:25.481Z,94608.63
2023-01-17T14:30:00.279Z,94600.34
2023-01-17T14:32:12.199Z,94608.63
2023-01-17T14:34:25.565Z,94599.75
2023-01-17T14:36:35.888Z,94603.63
2023-01-17T14:38:46.300Z,94602.91
2023-01-17T14:40:58.884Z,94595.84
2023-01-17T14:43:11.403Z,94597.66
2023-01-17T14:45:27.103Z,94592.94
2023-01-17T14:47:38.155Z,94585.06
2023-01-17T14:49:46.986Z,94585.88
2023-01-17T14:52:04.895Z,94587.41
2023-01-17T14:54:24.550Z,94584.78
2023-01-17T14:56:37.540Z,94587.00
2023-01-17T14:58:46.910Z,94590.31
2023-01-17T15:00:58.400Z,94581.88
2023-01-17T15:03:14.785Z,94586.00
2023-01-17T15:05:29.768Z,94594.41
2023-01-17T15:07:40.162Z,94591.63
2023-01-17T15:09:48.674Z,94595.34
2023-01-17T15:12:00.240Z,94597.53
2023-01-17T15:14:11.532Z,94588.25
2023-01-17T15:16:33.903Z,94592.72
2023-01-17T15:18:47.260Z,94598.16
2023-01-17T15:21:01.206Z,94595.47
2023-01-17T15:23:13.781Z,94586.72
2023-01-17T15:25:39.448Z,94581.47
2023-01-17T15:28:07.258Z,94586.06
2023-01-17T15:30:25.279Z,94587.84
2023-01-17T15:32:38.164Z,94589.13
2023-01-17T15:34:51.721Z,94584.41
2023-01-17T15:37:08.349Z,94581.88
2023-01-17T15:39:22.768Z,94575.50
2023-01-17T15:41:38.679Z,94573.31
2023-01-17T15:43:49.585Z,94579.00
2023-01-17T15:46:00.490Z,94581.72
2023-01-17T15:48:37.317Z,94574.38
2023-01-17T15:51:03.009Z,94581.97
2023-01-17T15:53:31.772Z,94574.53
2023-01-17T15:55:41.662Z,94572.16
2023-01-17T15:57:52.509Z,94577.09
2023-01-17T16:00:09.580Z,94583.19
2023-01-17T16:02:45.523Z,94588.28
2023-01-17T16:04:54.336Z,94578.22
2023-01-17T16:07:20.494Z,94589.00
2023-01-17T16:09:28.566Z,94586.09
2023-01-17T16:11:36.424Z,94595.59
2023-01-17T16:13:47.405Z,94597.25
2023-01-17T16:16:11.660Z,94599.31
2023-01-17T16:18:24.054Z,94604.31
2023-01-17T16:20:36.674Z,94602.91
2023-01-17T16:22:45.056Z,94600.09
2023-01-17T16:24:54.228Z,94616.38
2023-01-17T16:27:02.219Z,94604.81
2023-01-17T16:29:10.387Z,94604.22
2023-01-17T16:31:21.854Z,94594.69
2023-01-17T16:33:29.782Z,94613.84
2023-01-17T16:35:39.536Z,94617.50
2023-01-17T16:37:49.846Z,94615.63
2023-01-17T16:40:00.384Z,94612.31
2023-01-17T16:42:08.483Z,94616.41
2023-01-17T16:44:16.900Z,94603.03
2023-01-17T16:46:28.561Z,94604.69
2023-01-17T16:48:37.080Z,94608.59
2023-01-17T16:50:48.193Z,94611.22
2023-01-17T16:52:58.519Z,94611.34
2023-01-17T16:55:06.621Z,94610.31
2023-01-17T16:57:14.528Z,94612.81
2023-01-17T16:59:22.388Z,94608.34
2023-01-17T17:01:32.980Z,94607.53
2023-01-17T17:03:41.318Z,94601.88
2023-01-17T17:05:58.499Z,94603.94
2023-01-17T17:08:06.415Z,94611.59
2023-01-17T17:10:19.903Z,94597.16
2023-01-17T17:12:27.785Z,94601.16
2023-01-17T17:14:35.631Z,94603.59
2023-01-17T17:16:47.721Z,94605.44
2023-01-17T17:19:00.845Z,94607.66
2023-01-17T17:21:08.712Z,94603.38
2023-01-17T17:23:18.092Z,94605.31
2023-01-17T17:25:25.896Z,94608.41
2023-01-17T17:27:33.789Z,94609.50
2023-01-17T17:29:41.666Z,94599.53
2023-01-17T17:31:52.137Z,94607.19
2023-01-17T17:34:04.844Z,94613.59
2023-01-17T17:36:13.099Z,94613.94
2023-01-17T17:38:21.331Z,94610.25
2023-01-17T17:40:29.300Z,94614.31
2023-01-17T17:42:37.152Z,94611.69
2023-01-17T17:44:44.938Z,94609.09
2023-01-17T17:46:55.857Z,94612.13
2023-01-17T17:49:05.984Z,94610.84
2023-01-17T17:51:25.686Z,94604.63
2023-01-17T17:53:34.111Z,94600.63
2023-01-17T17:55:42.387Z,94603.09
2023-01-17T17:57:50.930Z,94601.94
2023-01-17T17:59:59.864Z,94597.88
2023-01-17T18:02:11.111Z,94599.09
2023-01-17T18:04:19.272Z,94603.13
2023-01-17T18:06:27.271Z,94603.72
2023-01-17T18:08:35.696Z,94605.75
2023-01-17T18:10:44.864Z,94605.50
2023-01-17T18:12:54.469Z,94603.50
2023-01-17T18:15:02.639Z,94599.78
2023-01-17T18:17:15.262Z,94599.34
2023-01-17T18:19:26.822Z,94603.34
2023-01-17T18:21:38.072Z,94613.47
2023-01-17T18:23:48.352Z,94610.63
2023-01-17T18:25:56.223Z,94609.53
2023-01-17T18:28:04.407Z,94616.56
2023-01-17T18:30:15.371Z,94618.22
2023-01-17T18:32:27.239Z,94609.53
2023-01-17T18:34:35.856Z,94614.91
2023-01-17T18:36:49.976Z,94615.25
2023-01-17T18:38:58.440Z,94616.09
2023-01-17T18:41:06.717Z,94616.31
2023-01-17T18:43:14.551Z,94615.84
2023-01-17T18:45:23.259Z,94608.84
2023-01-17T18:47:34.834Z,94609.06
2023-01-17T18:49:42.951Z,94606.94
2023-01-17T18:51:52.568Z,94615.59
2023-01-17T18:54:05.343Z,94610.63
2023-01-17T18:56:17.636Z,94610.16
2023-01-17T18:58:28.637Z,94613.34
2023-01-17T19:00:36.453Z,94606.59
2023-01-17T19:02:47.479Z,94606.72
2023-01-17T19:04:55.639Z,94608.38
2023-01-17T19:07:03.669Z,94610.16
2023-01-17T19:09:13.581Z,94612.66
2023-01-17T19:11:23.007Z,94612.41
2023-01-17T19:13:31.819Z,94608.72
2023-01-17T19:15:39.788Z,94609.88
2023-01-17T19:17:50.573Z,94612.66
2023-01-17T19:19:58.644Z,94610.16
2023-01-17T19:22:06.463Z,94611.47
2023-01-17T19:24:15.836Z,94613.00
2023-01-17T19:26:27.318Z,94609.22
2023-01-17T19:28:35.958Z,94612.41
2023-01-17T19:30:44.259Z,94613.13
2023-01-17T19:32:57.128Z,94611.56
2023-01-17T19:35:09.166Z,94610.63
2023-01-17T19:37:18.497Z,94620.16
2023-01-17T19:39:28.608Z,94612.75
2023-01-17T19:41:39.162Z,94619.66
2023-01-17T19:43:49.130Z,94612.41
2023-01-17T19:46:01.415Z,94617.06
2023-01-17T19:48:14.548Z,94611.91
2023-01-17T19:50:22.553Z,94609.56
2023-01-17T19:52:32.601Z,94612.75
2023-01-17T19:54:40.722Z,94613.00
2023-01-17T19:56:49.819Z,94606.69
2023-01-17T19:59:01.316Z,94604.06
2023-01-17T20:01:12.650Z,94600.16
2023-01-17T20:03:24.916Z,94593.03
2023-01-17T20:05:35.823Z,94595.66
2023-01-17T20:07:43.657Z,94594.69
2023-01-17T20:09:51.422Z,94595.38
2023-01-17T20:12:01.216Z,94603.97
2023-01-17T20:14:10.434Z,94598.72
2023-01-17T20:16:21.257Z,94609.81
2023-01-17T20:18:32.045Z,94607.19
2023-01-17T20:20:56.372Z,94612.41
2023-01-17T20:23:06.370Z,94607.78
2023-01-17T20:25:15.309Z,94609.22
2023-01-17T20:27:26.678Z,94612.78
2023-01-17T20:29:34.539Z,94610.03
2023-01-17T20:31:44.170Z,94600.53
2023-01-17T20:33:57.203Z,94603.84
2023-01-17T20:36:10.870Z,94603.25
2023-01-17T20:38:19.114Z,94601.94
2023-01-17T20:40:27.413Z,94601.00
2023-01-17T20:42:38.826Z,94602.31
2023-01-17T20:44:46.985Z,94598.25
2023-01-17T20:46:54.840Z,94591.84
2023-01-17T20:49:07.777Z,94588.84
2023-01-17T20:51:16.776Z,94596.72
2023-01-17T20:53:24.723Z,94594.56
2023-01-17T20:55:32.981Z,94589.81
2023-01-17T20:57:40.921Z,94579.69
2023-01-17T20:59:52.500Z,94586.38
2023-01-17T21:02:13.481Z,94581.13
2023-01-17T21:04:30.446Z,94590.41
2023-01-17T21:06:54.469Z,94589.13
2023-01-17T21:09:05.670Z,94590.66
2023-01-17T21:11:15.880Z,94586.25
2023-01-17T21:13:23.906Z,94587.69
2023-01-17T21:15:44.523Z,94589.47
2023-01-17T21:18:44.158Z,94587.81
2023-01-17T21:20:59.394Z,94582.22
2023-01-17T21:23:09.143Z,94584.59
2023-01-17T21:25:17.890Z,94593.25
2023-01-17T21:27:25.759Z,94591.00
2023-01-17T21:29:41.310Z,94598.13
2023-01-17T21:31:49.061Z,94591.81
2023-01-17T21:34:03.553Z,94598.63
2023-01-17T21:36:15.189Z,94598.16
2023-01-17T21:38:23.066Z,94596.13
2023-01-17T21:40:30.885Z,94600.75
2023-01-17T21:42:42.847Z,94599.69
2023-01-17T21:44:52.598Z,94594.81
2023-01-17T21:47:03.509Z,94596.72
2023-01-17T21:49:13.517Z,94596.13
2023-01-17T21:51:24.402Z,94605.75
2023-01-17T21:53:37.475Z,94610.38
2023-01-17T21:55:57.747Z,94603.84
2023-01-17T21:58:18.050Z,94598.38
2023-01-17T22:00:30.918Z,94600.06
2023-01-17T22:02:39.912Z,94601.47
2023-01-17T22:04:48.141Z,94601.34
2023-01-17T22:06:58.720Z,94612.03
2023-01-17T22:09:07.319Z,94604.09
2023-01-17T22:11:17.033Z,94610.75
2023-01-17T22:13:25.154Z,94602.66
2023-01-17T22:15:36.609Z,94594.09
2023-01-17T22:17:45.136Z,94594.91
2023-01-17T22:19:52.967Z,94592.28
2023-01-17T22:22:04.079Z,94591.81
2023-01-17T22:24:16.900Z,94595.53
2023-01-17T22:26:28.271Z,94594.00
2023-01-17T22:28:36.814Z,94586.03
2023-01-17T22:30:44.868Z,94585.53
2023-01-17T22:32:53.452Z,94582.69
2023-01-17T22:35:01.279Z,94580.16
2023-01-17T22:37:12.606Z,94581.00
2023-01-17T22:39:20.785Z,94585.78
2023-01-17T22:41:31.382Z,94591.50
2023-01-17T22:43:40.895Z,94591.50
2023-01-17T22:45:48.708Z,94592.53
2023-01-17T22:47:56.485Z,94588.63
2023-01-17T22:50:04.695Z,94590.16
2023-01-17T22:52:15.397Z,94598.72
2023-01-17T22:54:23.260Z,94596.94
2023-01-17T22:56:33.645Z,94592.91
2023-01-17T22:58:44.958Z,94595.88
2023-01-17T23:00:53.142Z,94592.28
2023-01-17T23:03:03.413Z,94599.66
2023-01-17T23:05:12.707Z,94593.88
2023-01-17T23:07:27.096Z,94595.88
2023-01-17T23:09:34.856Z,94595.75
2023-01-17T23:11:43.408Z,94600.16
2023-01-17T23:13:51.914Z,94593.03
2023-01-17T23:16:12.725Z,94591.38
2023-01-17T23:18:41.856Z,94594.44
2023-01-17T23:20:49.648Z,94586.97
2023-01-17T23:23:00.296Z,94586.00
2023-01-17T23:25:11.447Z,94580.66
2023-01-17T23:27:33.555Z,94578.88
2023-01-17T23:29:41.340Z,94580.31
2023-01-17T23:31:49.240Z,94582.56
2023-01-17T23:33:57.249Z,94588.38
2023-01-17T23:36:09.379Z,94576.38
2023-01-17T23:38:34.152Z,94585.06
2023-01-17T23:40:42.966Z,94584.72
2023-01-17T23:43:03.272Z,94580.06
2023-01-17T23:45:12.172Z,94587.06
2023-01-17T23:47:20.008Z,94584.44
2023-01-17T23:49:29.666Z,94588.03
2023-01-17T23:51:39.133Z,94580.91
2023-01-17T23:53:52.226Z,94584.09
2023-01-17T23:56:00.358Z,94586.72
2023-01-17T23:58:08.855Z,94594.81
